West Elkton, Ohio
Current Conditions -  °F | °C
As of 8:55 PM on Monday 20 Oct 2014 (Local Time) from KMWO Reporting Station
Overcast Overcast  
Wind Chill: 55°   Ceiling: 10000
Heat Index: 55°   Visibility: 7mi
Dew Point: 51°   Wind: 0mph
Humidity: 88%   Direction: NA
Pressure: 29.89"   Gusts: NA
Location:  39.59°N, 84.55°W
Report Text: KMWO 210055Z AUTO 00000KT 7SM SCT055 SCT075 OVC100 13/11 A2989 RMK AO2 T01250106
Loading
Personal Weather Stations






























Interactive Weather Map
Tropical Storm Tracking
New forecast layout! Learn more

10-Day Weather Forecast

Advertisements
Track Severe Weather on mobile